Airfield :
LOGIN :

Register | Disclaimer

   EN    FR    IT 

 










Legend :    VFR   Marginal VFR   IFR   Intensive IFR   Very Intensive IFR
Visi :
Ceiling :
>= 8 km
>= 3000ft
5 to 8 km
1000 to 3000 ft
1500m to 5 km
500 to 1000 ft
800 to 1500m
200 to 500 ft
< 800m
< 200 ft
Symbols :   Thunderstorms  Fog  Heavy snow  Heavy precipitations  Wind > 20 kt
SIGMETs :     Misc.  Thunderstorms  Icing  Turbulence  Mountain Waves  Volcanic Ashes






- Airport Elevation : 461 ft
- IATA code : WIE


ETOU - Wiesbaden Army

CURRENT METAR :
  • 162326Z AUTO 00000KT 5000 BR BKN009 01/00 A2991 RMK AO2 SLP137 $

EXPIRED METARs :
  • 162316Z AUTO 00000KT 4400 BR SCT010 00/00 A2992 RMK AO2 SLP141 $
  • 162256Z AUTO 00000KT 8000 BR CLR 02/01 A2992 RMK AO2 SLP140 T00180012 400700000 $
  • 162156Z AUTO 08004KT 8000 BR CLR 01/00 A2991 RMK AO2 SLP138 T00051002 $
  • 162056Z AUTO 10004KT 6000 BR CLR 00/M01 A2991 RMK AO2 SLP138 T00031007 52004 $

TAF TAF ETOU
Valid from the 16 at 12:00 until the 17 at 18:00 UTC


161206Z 1612/1718 22006KT 9999 SCT100 BKN120 QNH2979INS
BECMG 1618/1619 VRB06KT 5000 BR OVC010 QNH2975INS
BECMG 1709/1710 01006KT 9999 NSW SCT020 QNH2965INS
BECMG 1712/1713 02012KT 8000 -SHRA OVC015 610604 QNH2954INS TX07/1614Z TN00/1700Z LAST NO AMDS AFT 1618 NEXT 1804



MET'MAP, your aeronautical weather chart ! - Copyright ORBIFLY December 2007 - Disclaimer

ORBIFLY MET'MAP TEAM :

Programming & Development : Alexandra Zaïnal
Concept & Development : Baudouin d'Aumeries
Co-Development & Prog : Marc-Olivier Méhu
Technical & hardware support : Manuel Goepfert

Contact : metmap@orbifly.com




SOURCES & CREDITS :

   NOAA